createdAt,value
2023-05-23T00:00:59.819Z,89.21
2023-05-23T00:03:27.739Z,89.54
2023-05-23T00:06:12.021Z,90.75
2023-05-23T00:08:53.669Z,91.24
2023-05-23T00:11:47.451Z,91.08
2023-05-23T00:14:36.071Z,91.43
2023-05-23T00:17:03.144Z,92.06
2023-05-23T00:19:30.325Z,91.20
2023-05-23T00:21:58.859Z,91.18
2023-05-23T00:24:26.071Z,91.96
2023-05-23T00:26:53.082Z,90.80
2023-05-23T00:29:20.077Z,90.14
2023-05-23T00:31:47.336Z,90.09
2023-05-23T00:34:20.346Z,89.74
2023-05-23T00:36:50.711Z,90.69
2023-05-23T00:39:21.367Z,90.29
2023-05-23T00:41:53.256Z,89.28
2023-05-23T00:44:22.145Z,90.59
2023-05-23T00:46:55.604Z,90.84
2023-05-23T00:49:23.223Z,91.49
2023-05-23T00:51:52.337Z,91.65
2023-05-23T00:54:31.376Z,91.73
2023-05-23T00:56:58.766Z,92.86
2023-05-23T00:59:26.618Z,92.47
2023-05-23T01:01:56.375Z,93.18
2023-05-23T01:04:34.516Z,93.13
2023-05-23T01:07:12.910Z,94.20
2023-05-23T01:10:01.853Z,94.71
2023-05-23T01:12:49.139Z,95.23
2023-05-23T01:15:59.798Z,94.65
2023-05-23T01:18:52.089Z,94.28
2023-05-23T01:21:22.814Z,93.22
2023-05-23T01:24:11.444Z,93.57
2023-05-23T01:26:50.492Z,93.16
2023-05-23T01:29:28.346Z,93.87
2023-05-23T01:31:58.666Z,93.31
2023-05-23T01:34:25.977Z,93.27
2023-05-23T01:36:56.632Z,92.84
2023-05-23T01:39:24.511Z,95.31
2023-05-23T01:41:53.315Z,97.03
2023-05-23T01:44:21.452Z,96.74
2023-05-23T01:46:49.008Z,95.81
2023-05-23T01:49:18.560Z,95.90
2023-05-23T01:51:46.657Z,95.53
2023-05-23T01:54:17.251Z,94.05
2023-05-23T01:56:45.260Z,94.57
2023-05-23T01:59:12.850Z,94.88
2023-05-23T02:01:40.183Z,96.28
2023-05-23T02:04:07.320Z,98.31
2023-05-23T02:06:34.576Z,99.47
2023-05-23T02:09:01.769Z,100.00
2023-05-23T02:11:28.728Z,100.00
2023-05-23T02:13:55.832Z,100.00
2023-05-23T02:16:23.536Z,100.00
2023-05-23T02:18:53.046Z,100.00
2023-05-23T02:21:20.236Z,100.00
2023-05-23T02:23:47.276Z,100.00
2023-05-23T02:26:14.225Z,100.00
2023-05-23T02:28:41.607Z,100.00
2023-05-23T02:31:08.614Z,100.00
2023-05-23T02:33:35.709Z,100.00
2023-05-23T02:36:03.422Z,100.00
2023-05-23T02:38:31.129Z,100.00
2023-05-23T02:40:58.285Z,100.00
2023-05-23T02:43:25.243Z,100.00
2023-05-23T02:45:52.205Z,100.00
2023-05-23T02:48:19.168Z,100.00
2023-05-23T02:50:46.298Z,100.00
2023-05-23T02:53:13.480Z,100.00
2023-05-23T02:55:40.657Z,100.00
2023-05-23T02:58:07.862Z,100.00
2023-05-23T03:00:35.164Z,100.00
2023-05-23T03:03:02.887Z,100.00
2023-05-23T03:05:30.204Z,100.00
2023-05-23T03:07:58.138Z,100.00
2023-05-23T03:10:25.239Z,100.00
2023-05-23T03:12:52.255Z,100.00
2023-05-23T03:15:19.375Z,100.00
2023-05-23T03:17:46.443Z,100.00
2023-05-23T03:20:13.521Z,100.00
2023-05-23T03:22:42.805Z,100.00
2023-05-23T03:25:10.266Z,100.00
2023-05-23T03:27:37.349Z,100.00
2023-05-23T03:30:05.244Z,100.00
2023-05-23T03:32:32.384Z,100.00
2023-05-23T03:34:59.392Z,100.00
2023-05-23T03:37:26.408Z,100.00
2023-05-23T03:39:53.380Z,100.00
2023-05-23T03:42:20.400Z,100.00
2023-05-23T03:44:47.383Z,100.00
2023-05-23T03:47:14.457Z,100.00
2023-05-23T03:49:41.433Z,100.00
2023-05-23T03:52:08.530Z,100.00
2023-05-23T03:54:35.665Z,100.00
2023-05-23T03:57:03.230Z,100.00
2023-05-23T03:59:30.408Z,100.00
2023-05-23T04:01:59.260Z,100.00
2023-05-23T04:04:26.607Z,100.00
2023-05-23T04:06:53.997Z,100.00
2023-05-23T04:09:21.050Z,100.00
2023-05-23T04:11:48.753Z,100.00
2023-05-23T04:14:15.791Z,100.00
2023-05-23T04:16:42.909Z,100.00
2023-05-23T04:19:10.006Z,100.00
2023-05-23T04:21:37.177Z,100.00
2023-05-23T04:24:04.285Z,100.00
2023-05-23T04:26:31.242Z,100.00
2023-05-23T04:28:59.497Z,100.00
2023-05-23T04:31:26.578Z,99.02
2023-05-23T04:33:53.550Z,95.21
2023-05-23T04:36:20.538Z,93.70
2023-05-23T04:38:47.454Z,90.27
2023-05-23T04:41:16.672Z,88.63
2023-05-23T04:43:44.594Z,88.88
2023-05-23T04:46:14.166Z,84.25
2023-05-23T04:48:42.948Z,81.18
2023-05-23T04:51:10.009Z,80.32
2023-05-23T04:53:37.321Z,78.81
2023-05-23T04:56:04.414Z,78.24
2023-05-23T04:58:32.108Z,75.98
2023-05-23T05:00:59.070Z,74.86
2023-05-23T05:03:26.612Z,75.91
2023-05-23T05:05:54.026Z,76.85
2023-05-23T05:08:21.018Z,74.35
2023-05-23T05:10:48.205Z,73.91
2023-05-23T05:13:15.212Z,71.31
2023-05-23T05:15:42.890Z,70.46
2023-05-23T05:18:09.870Z,75.32
2023-05-23T05:20:36.880Z,69.90
2023-05-23T05:23:03.848Z,69.17
2023-05-23T05:25:32.612Z,67.76
2023-05-23T05:28:06.252Z,66.98
2023-05-23T05:30:35.506Z,67.54
2023-05-23T05:33:04.425Z,68.23
2023-05-23T05:35:32.813Z,65.50
2023-05-23T05:38:00.708Z,65.08
2023-05-23T05:40:27.656Z,65.45
2023-05-23T05:42:54.640Z,59.56
2023-05-23T05:45:21.591Z,61.23
2023-05-23T05:47:48.568Z,63.33
2023-05-23T05:50:15.540Z,59.45
2023-05-23T05:52:42.597Z,58.05
2023-05-23T05:55:13.973Z,58.27
2023-05-23T05:57:42.071Z,54.85
2023-05-23T06:00:15.203Z,58.12
2023-05-23T06:02:49.079Z,55.83
2023-05-23T06:05:18.942Z,56.57
2023-05-23T06:07:48.339Z,55.11
2023-05-23T06:10:15.325Z,55.53
2023-05-23T06:12:43.320Z,53.21
2023-05-23T06:15:10.747Z,54.38
2023-05-23T06:17:37.960Z,57.17
2023-05-23T06:20:05.415Z,58.05
2023-05-23T06:22:32.539Z,51.64
2023-05-23T06:24:59.668Z,52.06
2023-05-23T06:27:26.614Z,55.22
2023-05-23T06:29:53.701Z,53.66
2023-05-23T06:32:20.844Z,54.57
2023-05-23T06:34:47.839Z,52.52
2023-05-23T06:37:14.820Z,49.54
2023-05-23T06:39:41.885Z,52.39
2023-05-23T06:42:08.874Z,51.36
2023-05-23T06:44:35.956Z,48.36
2023-05-23T06:47:02.887Z,48.86
2023-05-23T06:49:29.880Z,49.32
2023-05-23T06:51:56.829Z,46.77
2023-05-23T06:54:23.772Z,47.65
2023-05-23T06:56:50.714Z,50.60
2023-05-23T06:59:17.660Z,47.88
2023-05-23T07:01:44.732Z,50.06
2023-05-23T07:04:12.529Z,47.96
2023-05-23T07:06:40.245Z,48.36
2023-05-23T07:09:07.218Z,50.57
2023-05-23T07:11:35.646Z,50.84
2023-05-23T07:14:02.621Z,50.82
2023-05-23T07:16:29.578Z,48.59
2023-05-23T07:18:56.567Z,47.84
2023-05-23T07:21:23.504Z,50.02
2023-05-23T07:23:50.449Z,47.92
2023-05-23T07:26:17.352Z,48.38
2023-05-23T07:28:44.360Z,47.86
2023-05-23T07:31:12.272Z,47.69
2023-05-23T07:33:39.282Z,50.37
2023-05-23T07:36:06.390Z,49.53
2023-05-23T07:38:33.350Z,52.83
2023-05-23T07:41:10.934Z,51.24
2023-05-23T07:43:39.439Z,48.96
2023-05-23T07:46:06.681Z,49.00
2023-05-23T07:48:33.738Z,49.77
2023-05-23T07:51:01.456Z,50.04
2023-05-23T07:53:28.443Z,47.83
2023-05-23T07:55:55.382Z,50.55
2023-05-23T07:58:23.468Z,52.06
2023-05-23T08:00:52.619Z,53.33
2023-05-23T08:03:20.346Z,47.60
2023-05-23T08:05:47.608Z,51.04
2023-05-23T08:08:14.587Z,47.59
2023-05-23T08:10:41.916Z,50.19
2023-05-23T08:13:12.114Z,49.31
2023-05-23T08:15:39.066Z,50.85
2023-05-23T08:18:06.573Z,49.41
2023-05-23T08:20:33.581Z,48.60
2023-05-23T08:23:01.770Z,51.65
2023-05-23T08:25:32.654Z,47.56
2023-05-23T08:28:00.873Z,46.95
2023-05-23T08:30:29.099Z,48.28
2023-05-23T08:32:57.235Z,50.77
2023-05-23T08:35:24.650Z,48.23
2023-05-23T08:37:52.745Z,46.78
2023-05-23T08:40:23.707Z,48.25
2023-05-23T08:42:51.532Z,42.96
2023-05-23T08:45:18.936Z,46.34
2023-05-23T08:47:47.483Z,47.14
2023-05-23T08:50:18.023Z,46.29
2023-05-23T08:52:59.502Z,46.43
2023-05-23T08:55:29.576Z,47.42
2023-05-23T08:58:01.802Z,45.06
2023-05-23T09:00:29.439Z,49.41
2023-05-23T09:02:57.678Z,44.29
2023-05-23T09:05:26.689Z,44.54
2023-05-23T09:07:55.274Z,46.62
2023-05-23T09:10:22.766Z,44.97
2023-05-23T09:12:50.190Z,46.01
2023-05-23T09:15:17.597Z,46.84
2023-05-23T09:17:45.675Z,43.86
2023-05-23T09:20:15.449Z,41.74
2023-05-23T09:22:48.152Z,41.56
2023-05-23T09:25:15.560Z,41.14
2023-05-23T09:27:45.702Z,37.03
2023-05-23T09:30:15.122Z,41.74
2023-05-23T09:32:42.667Z,36.74
2023-05-23T09:35:14.506Z,39.78
2023-05-23T09:37:47.115Z,37.47
2023-05-23T09:40:15.514Z,37.19
2023-05-23T09:42:44.658Z,36.24
2023-05-23T09:45:15.595Z,33.76
2023-05-23T09:47:54.592Z,36.27
2023-05-23T09:50:22.748Z,33.21
2023-05-23T09:52:49.972Z,34.92
2023-05-23T09:55:17.128Z,32.00
2023-05-23T09:57:44.984Z,32.17
2023-05-23T10:00:14.107Z,37.66
2023-05-23T10:03:08.607Z,37.38
2023-05-23T10:05:46.672Z,33.11
2023-05-23T10:08:19.794Z,34.90
2023-05-23T10:10:58.838Z,32.63
2023-05-23T10:13:29.557Z,35.78
2023-05-23T10:16:03.320Z,37.18
2023-05-23T10:18:34.893Z,34.21
2023-05-23T10:21:09.854Z,36.11
2023-05-23T10:23:38.440Z,34.20
2023-05-23T10:26:06.386Z,38.05
2023-05-23T10:28:33.829Z,37.99
2023-05-23T10:31:00.814Z,33.86
2023-05-23T10:33:33.455Z,38.10
2023-05-23T10:36:12.828Z,34.81
2023-05-23T10:39:20.755Z,35.52
2023-05-23T10:42:05.151Z,38.61
2023-05-23T10:44:32.590Z,35.89
2023-05-23T10:47:04.758Z,36.13
2023-05-23T10:49:44.993Z,35.55
2023-05-23T10:52:14.505Z,38.38
2023-05-23T10:54:52.771Z,39.05
2023-05-23T10:57:22.129Z,35.51
2023-05-23T10:59:52.290Z,35.90
2023-05-23T11:02:26.337Z,39.78
2023-05-23T11:05:23.117Z,33.88
2023-05-23T11:08:10.177Z,37.04
2023-05-23T11:10:57.145Z,34.62
2023-05-23T11:13:24.127Z,37.79
2023-05-23T11:15:51.969Z,34.19
2023-05-23T11:18:28.232Z,34.28
2023-05-23T11:20:55.579Z,36.46
2023-05-23T11:23:23.257Z,39.00
2023-05-23T11:25:52.502Z,37.61
2023-05-23T11:28:20.656Z,35.70
2023-05-23T11:30:51.345Z,39.73
2023-05-23T11:33:19.046Z,36.74
2023-05-23T11:35:48.772Z,40.81
2023-05-23T11:38:17.419Z,35.99
2023-05-23T11:40:46.792Z,37.67
2023-05-23T11:43:17.004Z,37.52
2023-05-23T11:45:47.083Z,40.08
2023-05-23T11:48:18.152Z,40.17
2023-05-23T11:50:50.397Z,39.48
2023-05-23T11:53:20.936Z,36.33
2023-05-23T11:55:55.458Z,37.61
2023-05-23T11:58:26.547Z,37.85
2023-05-23T12:00:58.636Z,37.00
2023-05-23T12:03:25.721Z,37.27
2023-05-23T12:05:52.889Z,37.59
2023-05-23T12:08:19.892Z,38.07
2023-05-23T12:11:00.749Z,37.52
2023-05-23T12:13:30.867Z,39.62
2023-05-23T12:16:00.539Z,38.34
2023-05-23T12:18:32.872Z,37.98
2023-05-23T12:21:11.052Z,39.19
2023-05-23T12:23:39.874Z,38.02
2023-05-23T12:26:07.929Z,38.04
2023-05-23T12:28:43.822Z,38.06
2023-05-23T12:31:11.094Z,39.77
2023-05-23T12:33:44.284Z,43.57
2023-05-23T12:36:15.894Z,40.83
2023-05-23T12:38:46.345Z,39.96
2023-05-23T12:41:17.324Z,39.25
2023-05-23T12:43:55.224Z,40.45
2023-05-23T12:46:23.997Z,45.37
2023-05-23T12:48:51.499Z,40.78
2023-05-23T12:51:18.823Z,41.46
2023-05-23T12:53:46.182Z,47.05
2023-05-23T12:56:13.303Z,52.42
2023-05-23T12:58:40.278Z,56.10
2023-05-23T13:01:07.290Z,59.62
2023-05-23T13:03:34.415Z,62.56
2023-05-23T13:06:01.828Z,65.45
2023-05-23T13:08:29.746Z,71.79
2023-05-23T13:10:57.553Z,77.24
2023-05-23T13:13:25.000Z,81.08
2023-05-23T13:15:52.382Z,85.55
2023-05-23T13:18:19.523Z,89.41
2023-05-23T13:20:46.755Z,90.37
2023-05-23T13:23:14.218Z,92.34
2023-05-23T13:25:41.486Z,92.26
2023-05-23T13:28:08.902Z,91.89
2023-05-23T13:30:36.022Z,92.55
2023-05-23T13:33:03.351Z,90.61
2023-05-23T13:35:30.316Z,92.30
2023-05-23T13:37:57.354Z,89.17
2023-05-23T13:40:24.362Z,90.90
2023-05-23T13:42:52.249Z,88.82
2023-05-23T13:45:20.369Z,88.13
2023-05-23T13:47:47.621Z,90.04
2023-05-23T13:50:14.827Z,88.19
2023-05-23T13:52:44.819Z,88.39
2023-05-23T13:55:13.561Z,87.75
2023-05-23T13:57:40.598Z,86.98
2023-05-23T14:00:09.751Z,87.25
2023-05-23T14:02:36.894Z,87.71
2023-05-23T14:05:04.311Z,87.45
2023-05-23T14:07:31.728Z,87.69
2023-05-23T14:09:59.982Z,86.57
2023-05-23T14:12:27.005Z,88.92
2023-05-23T14:14:53.978Z,86.92
2023-05-23T14:17:21.253Z,87.74
2023-05-23T14:19:48.482Z,85.72
2023-05-23T14:22:15.731Z,86.91
2023-05-23T14:24:42.776Z,87.50
2023-05-23T14:27:11.239Z,86.64
2023-05-23T14:29:39.109Z,87.04
2023-05-23T14:32:06.717Z,87.26
2023-05-23T14:34:33.946Z,87.68
2023-05-23T14:37:01.380Z,86.41
2023-05-23T14:39:29.331Z,84.70
2023-05-23T14:41:56.571Z,83.19
2023-05-23T14:44:23.792Z,83.26
2023-05-23T14:46:50.910Z,83.12
2023-05-23T14:49:18.260Z,83.45
2023-05-23T14:51:50.751Z,82.82
2023-05-23T14:54:19.330Z,82.95
2023-05-23T14:56:46.676Z,82.97
2023-05-23T14:59:14.098Z,82.10
2023-05-23T15:01:41.997Z,82.32
2023-05-23T15:04:10.005Z,83.59
2023-05-23T15:06:38.834Z,83.67
2023-05-23T15:09:06.393Z,84.96
2023-05-23T15:11:35.256Z,86.27
2023-05-23T15:14:02.312Z,91.34
2023-05-23T15:16:33.081Z,92.39
2023-05-23T15:19:00.491Z,91.40
2023-05-23T15:21:27.555Z,90.82
2023-05-23T15:23:54.911Z,89.12
2023-05-23T15:26:22.791Z,91.21
2023-05-23T15:28:49.888Z,92.13
2023-05-23T15:31:16.991Z,92.75
2023-05-23T15:33:44.061Z,94.10
2023-05-23T15:36:13.427Z,93.98
2023-05-23T15:38:40.607Z,94.82
2023-05-23T15:41:07.661Z,93.46
2023-05-23T15:43:38.089Z,93.60
2023-05-23T15:46:05.711Z,92.55
2023-05-23T15:48:32.974Z,91.67
2023-05-23T15:50:59.953Z,92.62
2023-05-23T15:53:27.052Z,91.44
2023-05-23T15:55:54.032Z,89.14
2023-05-23T15:58:21.127Z,89.50
2023-05-23T16:00:48.204Z,87.78
2023-05-23T16:03:15.221Z,87.63
2023-05-23T16:05:42.549Z,86.76
2023-05-23T16:08:09.677Z,85.02
2023-05-23T16:10:36.733Z,84.81
2023-05-23T16:13:04.359Z,84.59
2023-05-23T16:15:31.485Z,84.50
2023-05-23T16:17:59.029Z,83.45
2023-05-23T16:20:26.324Z,84.25
2023-05-23T16:22:53.302Z,85.57
2023-05-23T16:25:20.373Z,85.75
2023-05-23T16:27:47.330Z,86.45
2023-05-23T16:30:14.457Z,88.90
2023-05-23T16:32:41.608Z,90.48
2023-05-23T16:35:11.192Z,89.47
2023-05-23T16:37:38.961Z,91.07
2023-05-23T16:40:06.817Z,91.36
2023-05-23T16:42:34.063Z,93.64
2023-05-23T16:45:01.090Z,93.62
2023-05-23T16:47:28.162Z,93.28
2023-05-23T16:49:55.259Z,92.58
2023-05-23T16:52:22.537Z,92.41
2023-05-23T16:54:49.676Z,90.98
2023-05-23T16:57:16.630Z,90.29
2023-05-23T16:59:43.708Z,89.86
2023-05-23T17:02:15.333Z,88.67
2023-05-23T17:04:42.478Z,88.30
2023-05-23T17:07:09.771Z,88.67
2023-05-23T17:09:36.972Z,88.79
2023-05-23T17:12:04.060Z,89.20
2023-05-23T17:14:31.259Z,88.39
2023-05-23T17:16:58.261Z,90.49
2023-05-23T17:19:26.043Z,90.17
2023-05-23T17:21:53.131Z,89.88
2023-05-23T17:24:20.080Z,90.27
2023-05-23T17:26:47.088Z,90.54
2023-05-23T17:29:14.064Z,91.21
2023-05-23T17:31:41.177Z,89.78
2023-05-23T17:34:08.230Z,88.82
2023-05-23T17:36:35.386Z,89.05
2023-05-23T17:39:02.457Z,89.64
2023-05-23T17:41:29.439Z,90.36
2023-05-23T17:43:56.395Z,90.68
2023-05-23T17:46:23.543Z,91.78
2023-05-23T17:48:50.472Z,92.21
2023-05-23T17:51:17.469Z,93.35
2023-05-23T17:53:44.451Z,93.59
2023-05-23T17:56:11.446Z,95.37
2023-05-23T17:58:40.964Z,95.84
2023-05-23T18:01:09.586Z,96.51
2023-05-23T18:03:36.498Z,96.93
2023-05-23T18:06:03.406Z,98.27
2023-05-23T18:08:30.442Z,98.55
2023-05-23T18:10:57.482Z,99.05
2023-05-23T18:13:24.447Z,98.62
2023-05-23T18:15:51.441Z,98.05
2023-05-23T18:18:18.525Z,98.12
2023-05-23T18:20:45.772Z,98.93
2023-05-23T18:23:12.920Z,99.05
2023-05-23T18:25:39.857Z,99.23
2023-05-23T18:28:06.873Z,99.81
2023-05-23T18:30:33.957Z,99.81
2023-05-23T18:33:01.284Z,98.39
2023-05-23T18:35:28.439Z,99.10
2023-05-23T18:37:55.556Z,98.59
2023-05-23T18:40:24.866Z,98.15
2023-05-23T18:42:52.315Z,96.82
2023-05-23T18:45:19.350Z,96.75
2023-05-23T18:47:46.579Z,95.58
2023-05-23T18:50:13.890Z,97.43
2023-05-23T18:52:41.140Z,98.92
2023-05-23T18:55:08.670Z,99.81
2023-05-23T18:57:54.431Z,99.55
2023-05-23T19:00:21.812Z,98.54
2023-05-23T19:05:36.865Z,98.21
2023-05-23T19:08:03.934Z,97.35
2023-05-23T19:10:31.085Z,97.76
2023-05-23T19:12:58.066Z,97.31
2023-05-23T19:15:25.089Z,97.74
2023-05-23T19:17:52.009Z,98.35
2023-05-23T19:20:20.284Z,97.64
2023-05-23T19:22:51.752Z,97.57
2023-05-23T19:25:20.322Z,97.60
2023-05-23T19:27:47.272Z,97.67
2023-05-23T19:30:14.231Z,98.70
2023-05-23T19:32:41.479Z,98.51
2023-05-23T19:35:09.106Z,98.02
2023-05-23T19:37:36.101Z,98.21
2023-05-23T19:40:06.814Z,97.55
2023-05-23T19:42:34.405Z,98.27
2023-05-23T19:45:01.384Z,97.84
2023-05-23T19:47:30.233Z,98.22
2023-05-23T19:49:58.140Z,98.24
2023-05-23T19:52:25.122Z,97.01
2023-05-23T19:54:52.218Z,97.37
2023-05-23T19:57:19.222Z,97.61
2023-05-23T19:59:46.483Z,96.18
2023-05-23T20:02:14.057Z,97.35
2023-05-23T20:04:41.319Z,97.36
2023-05-23T20:07:08.297Z,97.86
2023-05-23T20:09:35.272Z,97.64
2023-05-23T20:12:02.577Z,96.96
2023-05-23T20:14:31.655Z,97.35
2023-05-23T20:16:58.915Z,97.71
2023-05-23T20:19:26.001Z,98.20
2023-05-23T20:21:53.179Z,98.11
2023-05-23T20:24:20.133Z,98.58
2023-05-23T20:26:47.100Z,98.73
2023-05-23T20:29:14.161Z,98.46
2023-05-23T20:31:41.311Z,98.60
2023-05-23T20:34:08.621Z,98.60
2023-05-23T20:36:35.574Z,99.17
2023-05-23T20:39:02.518Z,99.21
2023-05-23T20:41:29.888Z,99.53
2023-05-23T20:43:57.091Z,99.16
2023-05-23T20:46:24.066Z,98.72
2023-05-23T20:48:51.019Z,99.36
2023-05-23T20:51:18.862Z,98.44
2023-05-23T20:53:45.964Z,99.47
2023-05-23T20:56:13.135Z,99.27
2023-05-23T20:58:41.097Z,99.50
2023-05-23T21:01:08.294Z,99.27
2023-05-23T21:03:35.512Z,98.94
2023-05-23T21:06:02.524Z,99.91
2023-05-23T21:08:29.985Z,99.42
2023-05-23T21:10:58.079Z,99.15
2023-05-23T21:13:25.027Z,99.16
2023-05-23T21:15:52.006Z,99.14
2023-05-23T21:18:18.973Z,99.93
2023-05-23T21:20:46.255Z,99.87
2023-05-23T21:23:13.165Z,99.59
2023-05-23T21:25:40.139Z,100.00
2023-05-23T21:28:07.135Z,99.89
2023-05-23T21:30:34.495Z,99.96
2023-05-23T21:33:01.666Z,99.21
2023-05-23T21:35:28.763Z,100.00
2023-05-23T21:37:55.814Z,100.00
2023-05-23T21:40:23.334Z,100.00
2023-05-23T21:42:50.578Z,99.46
2023-05-23T21:45:17.862Z,99.85
2023-05-23T21:47:44.840Z,100.00
2023-05-23T21:50:11.896Z,99.89
2023-05-23T21:52:38.874Z,99.54
2023-05-23T21:55:06.181Z,100.00
2023-05-23T21:57:33.273Z,100.00
2023-05-23T22:00:00.222Z,100.00
2023-05-23T22:02:27.120Z,100.00
2023-05-23T22:04:53.974Z,100.00
2023-05-23T22:07:25.485Z,100.00
2023-05-23T22:09:53.589Z,100.00
2023-05-23T22:12:20.715Z,100.00
2023-05-23T22:14:47.612Z,100.00
2023-05-23T22:17:14.433Z,100.00
2023-05-23T22:22:09.962Z,100.00
2023-05-23T22:24:36.782Z,100.00
2023-05-23T22:27:04.457Z,100.00
2023-05-23T22:29:31.294Z,100.00
2023-05-23T22:31:58.252Z,100.00
2023-05-23T22:34:25.231Z,100.00
2023-05-23T22:36:52.382Z,100.00
2023-05-23T22:39:19.297Z,100.00
2023-05-23T22:41:46.220Z,100.00
2023-05-23T22:44:13.044Z,100.00
2023-05-23T22:46:42.968Z,100.00
2023-05-23T22:49:10.496Z,100.00
2023-05-23T22:51:37.341Z,100.00
2023-05-23T22:54:04.221Z,100.00
2023-05-23T22:56:31.086Z,100.00
2023-05-23T22:58:57.948Z,100.00
2023-05-23T23:01:24.857Z,100.00
2023-05-23T23:03:51.750Z,100.00
2023-05-23T23:06:21.148Z,100.00
2023-05-23T23:08:48.076Z,100.00
2023-05-23T23:11:14.910Z,100.00
2023-05-23T23:13:41.708Z,100.00
2023-05-23T23:16:08.882Z,100.00
2023-05-23T23:18:35.862Z,100.00
2023-05-23T23:21:02.733Z,100.00
2023-05-23T23:23:29.615Z,100.00
2023-05-23T23:25:56.477Z,100.00
2023-05-23T23:28:23.347Z,100.00
2023-05-23T23:30:52.482Z,100.00
2023-05-23T23:33:20.019Z,100.00
2023-05-23T23:35:49.021Z,100.00
2023-05-23T23:38:16.535Z,100.00
2023-05-23T23:40:45.789Z,100.00
2023-05-23T23:43:13.756Z,100.00
2023-05-23T23:45:40.868Z,100.00
2023-05-23T23:48:07.923Z,100.00
2023-05-23T23:50:34.887Z,100.00
2023-05-23T23:53:01.852Z,100.00
2023-05-23T23:55:28.781Z,100.00
2023-05-23T23:57:55.902Z,100.00
